createdAt,value
2023-05-15T00:00:22.494Z,21.02
2023-05-15T00:00:53.782Z,21.02
2023-05-15T00:01:25.081Z,21.01
2023-05-15T00:01:56.432Z,21.00
2023-05-15T00:02:27.937Z,21.00
2023-05-15T00:02:59.384Z,20.99
2023-05-15T00:03:30.892Z,21.01
2023-05-15T00:04:02.268Z,21.00
2023-05-15T00:04:33.578Z,21.00
2023-05-15T00:05:05.288Z,21.00
2023-05-15T00:05:36.756Z,21.00
2023-05-15T00:06:08.095Z,21.01
2023-05-15T00:06:39.435Z,21.01
2023-05-15T00:07:10.746Z,21.03
2023-05-15T00:07:42.107Z,21.01
2023-05-15T00:08:13.454Z,21.00
2023-05-15T00:08:44.769Z,21.00
2023-05-15T00:09:16.118Z,21.00
2023-05-15T00:09:47.416Z,20.99
2023-05-15T00:10:18.709Z,20.99
2023-05-15T00:11:00.775Z,20.98
2023-05-15T00:11:33.167Z,20.98
2023-05-15T00:12:04.608Z,20.98
2023-05-15T00:12:35.883Z,20.99
2023-05-15T00:13:07.172Z,21.00
2023-05-15T00:13:38.431Z,20.99
2023-05-15T00:14:09.757Z,20.99
2023-05-15T00:14:41.042Z,20.99
2023-05-15T00:15:12.428Z,20.98
2023-05-15T00:15:43.732Z,20.98
2023-05-15T00:16:15.042Z,20.97
2023-05-15T00:16:46.430Z,20.97
2023-05-15T00:17:17.764Z,20.98
2023-05-15T00:17:49.111Z,20.96
2023-05-15T00:18:20.500Z,20.97
2023-05-15T00:18:51.850Z,20.95
2023-05-15T00:19:23.172Z,20.95
2023-05-15T00:19:54.549Z,20.95
2023-05-15T00:20:25.907Z,20.97
2023-05-15T00:20:57.203Z,20.96
2023-05-15T00:21:28.462Z,20.98
2023-05-15T00:21:59.754Z,20.95
2023-05-15T00:22:31.016Z,20.95
2023-05-15T00:23:02.312Z,20.98
2023-05-15T00:23:33.596Z,20.97
2023-05-15T00:24:04.950Z,20.96
2023-05-15T00:24:36.256Z,20.96
2023-05-15T00:25:07.676Z,20.97
2023-05-15T00:25:39.037Z,20.95
2023-05-15T00:26:10.356Z,20.96
2023-05-15T00:26:41.642Z,20.95
2023-05-15T00:27:12.971Z,20.96
2023-05-15T00:27:44.267Z,20.95
2023-05-15T00:28:15.577Z,20.95
2023-05-15T00:28:46.884Z,20.95
2023-05-15T00:29:18.166Z,20.94
2023-05-15T00:29:49.470Z,20.92
2023-05-15T00:30:20.786Z,20.94
2023-05-15T00:30:52.176Z,20.93
2023-05-15T00:31:23.534Z,20.93
2023-05-15T00:31:54.941Z,20.91
2023-05-15T00:32:26.433Z,20.95
2023-05-15T00:32:57.812Z,20.95
2023-05-15T00:33:29.153Z,20.94
2023-05-15T00:34:00.444Z,20.95
2023-05-15T00:34:31.748Z,20.97
2023-05-15T00:35:03.168Z,20.96
2023-05-15T00:35:34.507Z,20.95
2023-05-15T00:36:06.157Z,20.95
2023-05-15T00:36:37.454Z,20.95
2023-05-15T00:37:08.855Z,20.90
2023-05-15T00:37:40.141Z,20.89
2023-05-15T00:38:11.455Z,20.91
2023-05-15T00:38:42.849Z,20.90
2023-05-15T00:39:14.153Z,20.90
2023-05-15T00:39:45.473Z,20.90
2023-05-15T00:40:18.901Z,20.91
2023-05-15T00:40:50.195Z,20.93
2023-05-15T00:41:21.483Z,20.97
2023-05-15T00:41:52.770Z,20.97
2023-05-15T00:42:24.037Z,20.97
2023-05-15T00:42:55.433Z,20.96
2023-05-15T00:43:26.740Z,20.95
2023-05-15T00:43:58.080Z,20.95
2023-05-15T00:44:30.692Z,20.93
2023-05-15T00:45:02.159Z,20.92
2023-05-15T00:45:33.482Z,20.91
2023-05-15T00:46:04.801Z,20.91
2023-05-15T00:46:36.164Z,20.92
2023-05-15T00:47:07.622Z,20.92
2023-05-15T00:47:39.038Z,20.91
2023-05-15T00:48:10.404Z,20.90
2023-05-15T00:48:41.699Z,20.91
2023-05-15T00:49:13.009Z,20.90
2023-05-15T00:49:44.322Z,20.91
2023-05-15T00:50:15.649Z,20.93
2023-05-15T00:50:46.995Z,20.93
2023-05-15T00:51:18.283Z,20.94
2023-05-15T00:51:49.599Z,20.91
2023-05-15T00:52:20.873Z,20.92
2023-05-15T00:52:52.226Z,20.90
2023-05-15T00:53:23.833Z,20.91
2023-05-15T00:53:55.138Z,20.91
2023-05-15T00:54:26.530Z,20.90
2023-05-15T00:54:57.815Z,20.89
2023-05-15T00:55:29.098Z,20.89
2023-05-15T00:56:00.451Z,20.88
2023-05-15T00:56:31.758Z,20.88
2023-05-15T00:57:03.815Z,20.89
2023-05-15T00:57:35.122Z,20.88
2023-05-15T00:58:07.374Z,20.87
2023-05-15T00:58:38.708Z,20.86
2023-05-15T00:59:09.980Z,20.87
2023-05-15T00:59:41.253Z,20.86
2023-05-15T01:00:12.816Z,20.85
2023-05-15T01:00:44.332Z,20.87
2023-05-15T01:01:16.332Z,20.87
2023-05-15T01:01:47.904Z,20.85
2023-05-15T01:02:19.447Z,20.87
2023-05-15T01:02:51.033Z,20.88
2023-05-15T01:03:22.821Z,20.87
2023-05-15T01:03:54.357Z,20.87
2023-05-15T01:04:26.090Z,20.86
2023-05-15T01:04:57.512Z,20.87
2023-05-15T01:05:29.078Z,20.87
2023-05-15T01:06:00.552Z,20.86
2023-05-15T01:06:32.139Z,20.86
2023-05-15T01:07:03.765Z,20.86
2023-05-15T01:07:35.487Z,20.86
2023-05-15T01:08:08.827Z,20.87
2023-05-15T01:08:40.342Z,20.87
2023-05-15T01:09:11.797Z,20.85
2023-05-15T01:09:45.473Z,20.84
2023-05-15T01:10:17.009Z,20.87
2023-05-15T01:10:48.564Z,20.84
2023-05-15T01:11:20.049Z,20.85
2023-05-15T01:11:53.618Z,20.85
2023-05-15T01:12:25.230Z,20.85
2023-05-15T01:12:56.800Z,20.84
2023-05-15T01:13:28.247Z,20.82
2023-05-15T01:13:59.769Z,20.84
2023-05-15T01:14:31.295Z,20.83
2023-05-15T01:15:02.841Z,20.83
2023-05-15T01:15:34.363Z,20.81
2023-05-15T01:16:06.224Z,20.83
2023-05-15T01:16:37.773Z,20.82
2023-05-15T01:17:09.417Z,20.83
2023-05-15T01:17:41.033Z,20.82
2023-05-15T01:18:12.611Z,20.83
2023-05-15T01:18:44.405Z,20.84
2023-05-15T01:19:16.339Z,20.84
2023-05-15T01:19:48.164Z,20.85
2023-05-15T01:20:19.805Z,20.84
2023-05-15T01:21:02.012Z,20.84
2023-05-15T01:21:36.403Z,20.83
2023-05-15T01:22:23.192Z,20.81
2023-05-15T01:22:57.453Z,20.85
2023-05-15T01:24:04.387Z,20.82
2023-05-15T01:24:54.391Z,20.80
2023-05-15T01:25:44.180Z,20.80
2023-05-15T01:26:30.941Z,20.79
2023-05-15T01:27:05.143Z,20.80
2023-05-15T01:27:43.796Z,20.79
2023-05-15T01:28:17.761Z,20.79
2023-05-15T01:28:51.921Z,20.78
2023-05-15T01:29:23.456Z,20.79
2023-05-15T01:29:57.808Z,20.77
2023-05-15T01:30:30.061Z,20.76
2023-05-15T01:31:03.106Z,20.77
2023-05-15T01:31:34.753Z,20.80
2023-05-15T01:32:09.683Z,20.81
2023-05-15T01:33:07.153Z,20.79
2023-05-15T01:33:39.032Z,20.80
2023-05-15T01:34:10.650Z,20.80
2023-05-15T01:34:54.268Z,20.79
2023-05-15T01:35:44.194Z,20.79
2023-05-15T01:36:15.702Z,20.79
2023-05-15T01:36:48.211Z,20.79
2023-05-15T01:37:21.607Z,20.79
2023-05-15T01:38:01.089Z,20.81
2023-05-15T01:38:38.861Z,20.81
2023-05-15T01:39:10.366Z,20.82
2023-05-15T01:39:42.292Z,20.81
2023-05-15T01:40:13.782Z,20.81
2023-05-15T01:40:45.345Z,20.81
2023-05-15T01:41:34.996Z,20.81
2023-05-15T01:42:09.649Z,20.79
2023-05-15T01:42:42.078Z,20.79
2023-05-15T01:43:15.935Z,20.79
2023-05-15T01:43:47.508Z,20.79
2023-05-15T01:44:19.703Z,20.78
2023-05-15T01:44:54.952Z,20.80
2023-05-15T01:45:29.290Z,20.82
2023-05-15T01:46:00.874Z,20.81
2023-05-15T01:46:32.456Z,20.81
2023-05-15T01:47:07.953Z,20.80
2023-05-15T01:47:43.011Z,20.80
2023-05-15T01:48:14.602Z,20.79
2023-05-15T01:48:46.191Z,20.78
2023-05-15T01:49:18.112Z,20.79
2023-05-15T01:49:49.858Z,20.77
2023-05-15T01:50:21.431Z,20.78
2023-05-15T01:50:52.972Z,20.79
2023-05-15T01:51:24.502Z,20.78
2023-05-15T01:51:57.382Z,20.79
2023-05-15T01:52:29.454Z,20.77
2023-05-15T01:53:01.006Z,20.75
2023-05-15T01:53:32.693Z,20.74
2023-05-15T01:54:04.234Z,20.74
2023-05-15T01:54:35.961Z,20.74
2023-05-15T01:55:07.643Z,20.75
2023-05-15T01:55:39.323Z,20.74
2023-05-15T01:56:11.874Z,20.73
2023-05-15T01:56:43.364Z,20.73
2023-05-15T01:57:14.968Z,20.74
2023-05-15T01:57:47.043Z,20.74
2023-05-15T01:58:18.613Z,20.73
2023-05-15T01:58:50.194Z,20.72
2023-05-15T01:59:21.748Z,20.72
2023-05-15T01:59:53.251Z,20.73
2023-05-15T02:00:24.831Z,20.74
2023-05-15T02:00:56.378Z,20.71
2023-05-15T02:01:27.956Z,20.73
2023-05-15T02:01:59.596Z,20.71
2023-05-15T02:02:31.202Z,20.71
2023-05-15T02:03:02.844Z,20.72
2023-05-15T02:03:34.496Z,20.74
2023-05-15T02:04:06.153Z,20.73
2023-05-15T02:04:38.146Z,20.73
2023-05-15T02:05:09.797Z,20.70
2023-05-15T02:05:41.310Z,20.70
2023-05-15T02:06:13.004Z,20.72
2023-05-15T02:06:44.620Z,20.72
2023-05-15T02:07:16.240Z,20.71
2023-05-15T02:07:47.810Z,20.70
2023-05-15T02:08:19.728Z,20.70
2023-05-15T02:08:51.290Z,20.71
2023-05-15T02:09:22.972Z,20.71
2023-05-15T02:09:54.511Z,20.74
2023-05-15T02:10:26.080Z,20.74
2023-05-15T02:10:58.016Z,20.74
2023-05-15T02:11:29.551Z,20.73
2023-05-15T02:12:01.194Z,20.73
2023-05-15T02:12:32.820Z,20.71
2023-05-15T02:13:04.831Z,20.73
2023-05-15T02:13:36.383Z,20.73
2023-05-15T02:14:08.764Z,20.73
2023-05-15T02:14:40.605Z,20.72
2023-05-15T02:15:12.208Z,20.71
2023-05-15T02:15:43.748Z,20.71
2023-05-15T02:16:15.328Z,20.69
2023-05-15T02:16:47.024Z,20.70
2023-05-15T02:17:18.556Z,20.73
2023-05-15T02:17:50.155Z,20.71
2023-05-15T02:18:21.786Z,20.69
2023-05-15T02:18:53.413Z,20.69
2023-05-15T02:19:24.944Z,20.70
2023-05-15T02:19:56.469Z,20.69
2023-05-15T02:20:28.107Z,20.69
2023-05-15T02:20:59.733Z,20.68
2023-05-15T02:21:31.293Z,20.67
2023-05-15T02:22:02.864Z,20.66
2023-05-15T02:22:34.417Z,20.69
2023-05-15T02:23:06.001Z,20.71
2023-05-15T02:23:37.534Z,20.69
2023-05-15T02:24:09.089Z,20.69
2023-05-15T02:24:40.642Z,20.72
2023-05-15T02:25:12.189Z,20.72
2023-05-15T02:25:43.810Z,20.74
2023-05-15T02:26:24.410Z,20.72
2023-05-15T02:27:14.330Z,20.71
2023-05-15T02:27:51.823Z,20.70
2023-05-15T02:28:31.314Z,20.70
2023-05-15T02:29:21.382Z,20.67
2023-05-15T02:29:55.647Z,20.71
2023-05-15T02:30:34.131Z,20.71
2023-05-15T02:31:06.701Z,20.74
2023-05-15T02:31:39.058Z,20.73
2023-05-15T02:32:19.692Z,20.71
2023-05-15T02:32:51.215Z,20.71
2023-05-15T02:33:41.107Z,20.70
2023-05-15T02:34:23.493Z,20.71
2023-05-15T02:35:13.322Z,20.68
2023-05-15T02:35:50.641Z,20.67
2023-05-15T02:36:23.692Z,20.65
2023-05-15T02:36:56.342Z,20.69
2023-05-15T02:37:28.482Z,20.70
2023-05-15T02:38:00.959Z,20.69
2023-05-15T02:38:33.934Z,20.70
2023-05-15T02:39:05.678Z,20.70
2023-05-15T02:39:37.503Z,20.67
2023-05-15T02:40:09.879Z,20.70
2023-05-15T02:40:41.384Z,20.67
2023-05-15T02:41:12.925Z,20.65
2023-05-15T02:41:45.164Z,20.66
2023-05-15T02:42:16.711Z,20.67
2023-05-15T02:42:48.586Z,20.67
2023-05-15T02:43:20.123Z,20.67
2023-05-15T02:43:51.955Z,20.66
2023-05-15T02:44:23.516Z,20.69
2023-05-15T02:44:55.359Z,20.71
2023-05-15T02:45:27.134Z,20.67
2023-05-15T02:45:58.927Z,20.66
2023-05-15T02:46:30.466Z,20.67
2023-05-15T02:47:02.080Z,20.64
2023-05-15T02:47:33.624Z,20.63
2023-05-15T02:48:05.485Z,20.64
2023-05-15T02:48:39.884Z,20.65
2023-05-15T02:49:11.530Z,20.69
2023-05-15T02:49:43.019Z,20.67
2023-05-15T02:50:14.652Z,20.69
2023-05-15T02:50:46.132Z,20.67
2023-05-15T02:51:17.718Z,20.65
2023-05-15T02:51:49.197Z,20.67
2023-05-15T02:52:20.745Z,20.68
2023-05-15T02:53:01.089Z,20.67
2023-05-15T02:53:33.054Z,20.67
2023-05-15T02:54:04.587Z,20.66
2023-05-15T02:54:36.081Z,20.64
2023-05-15T02:55:07.982Z,20.63
2023-05-15T02:55:39.503Z,20.64
2023-05-15T02:56:11.028Z,20.62
2023-05-15T02:56:42.575Z,20.64
2023-05-15T02:57:13.999Z,20.65
2023-05-15T02:57:45.513Z,20.63
2023-05-15T02:58:16.962Z,20.62
2023-05-15T02:58:48.461Z,20.63
2023-05-15T02:59:20.086Z,20.65
2023-05-15T02:59:52.335Z,20.66
2023-05-15T03:00:23.826Z,20.64
2023-05-15T03:00:55.393Z,20.62
2023-05-15T03:01:26.973Z,20.62
2023-05-15T03:01:58.578Z,20.64
2023-05-15T03:02:30.127Z,20.60
2023-05-15T03:03:01.802Z,20.61
2023-05-15T03:03:33.359Z,20.59
2023-05-15T03:04:05.154Z,20.59
2023-05-15T03:04:36.739Z,20.58
2023-05-15T03:05:08.530Z,20.61
2023-05-15T03:05:40.116Z,20.59
2023-05-15T03:06:11.658Z,20.57
2023-05-15T03:06:43.200Z,20.56
2023-05-15T03:07:14.644Z,20.57
2023-05-15T03:07:46.206Z,20.57
2023-05-15T03:08:17.791Z,20.57
2023-05-15T03:08:49.388Z,20.54
2023-05-15T03:09:20.905Z,20.56
2023-05-15T03:09:52.421Z,20.59
2023-05-15T03:10:23.928Z,20.56
2023-05-15T03:10:55.446Z,20.58
2023-05-15T03:11:26.929Z,20.58
2023-05-15T03:11:58.481Z,20.58
2023-05-15T03:12:30.096Z,20.58
2023-05-15T03:13:01.659Z,20.55
2023-05-15T03:13:33.116Z,20.57
2023-05-15T03:14:04.648Z,20.53
2023-05-15T03:14:36.189Z,20.54
2023-05-15T03:15:07.838Z,20.56
2023-05-15T03:15:39.349Z,20.57
2023-05-15T03:16:10.894Z,20.55
2023-05-15T03:16:42.387Z,20.56
2023-05-15T03:17:14.055Z,20.55
2023-05-15T03:17:45.691Z,20.56
2023-05-15T03:18:18.612Z,20.58
2023-05-15T03:18:50.460Z,20.57
2023-05-15T03:19:22.069Z,20.56
2023-05-15T03:19:53.524Z,20.55
2023-05-15T03:20:25.067Z,20.54
2023-05-15T03:20:56.632Z,20.54
2023-05-15T03:21:28.164Z,20.53
2023-05-15T03:21:59.652Z,20.53
2023-05-15T03:22:31.101Z,20.54
2023-05-15T03:23:02.639Z,20.53
2023-05-15T03:23:36.322Z,20.53
2023-05-15T03:24:09.153Z,20.53
2023-05-15T03:24:40.670Z,20.53
2023-05-15T03:25:12.182Z,20.51
2023-05-15T03:25:43.673Z,20.53
2023-05-15T03:26:15.172Z,20.54
2023-05-15T03:26:46.718Z,20.54
2023-05-15T03:27:18.143Z,20.54
2023-05-15T03:27:49.686Z,20.49
2023-05-15T03:28:21.308Z,20.52
2023-05-15T03:28:53.094Z,20.51
2023-05-15T03:29:24.730Z,20.51
2023-05-15T03:29:56.383Z,20.50
2023-05-15T03:30:27.850Z,20.49
2023-05-15T03:30:59.424Z,20.49
2023-05-15T03:31:31.108Z,20.49
2023-05-15T03:32:02.716Z,20.49
2023-05-15T03:32:34.209Z,20.49
2023-05-15T03:33:05.917Z,20.46
2023-05-15T03:33:37.930Z,20.45
2023-05-15T03:34:09.416Z,20.45
2023-05-15T03:34:41.252Z,20.47
2023-05-15T03:35:12.906Z,20.48
2023-05-15T03:35:44.411Z,20.48
2023-05-15T03:36:15.962Z,20.48
2023-05-15T03:36:47.433Z,20.45
2023-05-15T03:37:18.997Z,20.49
2023-05-15T03:37:50.450Z,20.46
2023-05-15T03:38:21.974Z,20.46
2023-05-15T03:38:53.455Z,20.46
2023-05-15T03:39:24.949Z,20.48
2023-05-15T03:39:56.449Z,20.46
2023-05-15T03:40:27.966Z,20.49
2023-05-15T03:40:59.492Z,20.48
2023-05-15T03:41:30.968Z,20.45
2023-05-15T03:42:02.794Z,20.45
2023-05-15T03:42:34.302Z,20.44
2023-05-15T03:43:06.239Z,20.45
2023-05-15T03:43:37.755Z,20.45
2023-05-15T03:44:09.273Z,20.47
2023-05-15T03:44:40.772Z,20.48
2023-05-15T03:45:12.345Z,20.45
2023-05-15T03:45:44.072Z,20.47
2023-05-15T03:46:15.774Z,20.47
2023-05-15T03:46:47.434Z,20.47
2023-05-15T03:47:18.970Z,20.46
2023-05-15T03:47:50.485Z,20.46
2023-05-15T03:48:22.078Z,20.46
2023-05-15T03:48:53.651Z,20.46
2023-05-15T03:49:25.120Z,20.46
2023-05-15T03:49:56.654Z,20.46
2023-05-15T03:50:28.196Z,20.43
2023-05-15T03:50:59.751Z,20.43
2023-05-15T03:51:31.291Z,20.44
2023-05-15T03:52:02.846Z,20.44
2023-05-15T03:52:34.382Z,20.45
2023-05-15T03:53:05.947Z,20.46
2023-05-15T03:53:37.424Z,20.46
2023-05-15T03:54:08.959Z,20.44
2023-05-15T03:54:40.540Z,20.46
2023-05-15T03:55:12.182Z,20.47
2023-05-15T03:55:43.812Z,20.45
2023-05-15T03:56:15.377Z,20.45
2023-05-15T03:56:46.859Z,20.43
2023-05-15T03:57:18.356Z,20.43
2023-05-15T03:57:49.904Z,20.43
2023-05-15T03:58:21.431Z,20.42
2023-05-15T03:58:53.154Z,20.41
2023-05-15T03:59:24.745Z,20.42
2023-05-15T03:59:56.300Z,20.43
2023-05-15T04:00:27.889Z,20.44
2023-05-15T04:00:59.448Z,20.44
2023-05-15T04:01:31.092Z,20.44
2023-05-15T04:02:05.107Z,20.45
2023-05-15T04:02:37.542Z,20.43
2023-05-15T04:03:09.212Z,20.42
2023-05-15T04:03:40.797Z,20.44
2023-05-15T04:04:12.340Z,20.42
2023-05-15T04:04:43.910Z,20.40
2023-05-15T04:05:15.554Z,20.43
2023-05-15T04:05:47.142Z,20.42
2023-05-15T04:06:18.654Z,20.43
2023-05-15T04:06:50.481Z,20.45
2023-05-15T04:07:21.975Z,20.45
2023-05-15T04:07:53.516Z,20.45
2023-05-15T04:08:25.017Z,20.45
2023-05-15T04:08:56.505Z,20.46
2023-05-15T04:09:28.056Z,20.44
2023-05-15T04:09:59.610Z,20.46
2023-05-15T04:10:31.097Z,20.44
2023-05-15T04:11:02.560Z,20.44
2023-05-15T04:11:34.106Z,20.40
2023-05-15T04:12:05.790Z,20.41
2023-05-15T04:12:37.316Z,20.41
2023-05-15T04:13:08.842Z,20.43
2023-05-15T04:13:40.346Z,20.43
2023-05-15T04:14:11.860Z,20.44
2023-05-15T04:14:43.368Z,20.45
2023-05-15T04:15:17.728Z,20.43
2023-05-15T04:15:49.236Z,20.43
2023-05-15T04:16:20.783Z,20.45
2023-05-15T04:16:52.414Z,20.45
2023-05-15T04:17:24.050Z,20.45
2023-05-15T04:17:55.611Z,20.46
2023-05-15T04:18:27.140Z,20.46
2023-05-15T04:18:58.693Z,20.45
2023-05-15T04:19:30.285Z,20.44
2023-05-15T04:20:01.812Z,20.43
2023-05-15T04:20:33.410Z,20.43
2023-05-15T04:21:05.002Z,20.45
2023-05-15T04:21:36.565Z,20.44
2023-05-15T04:22:08.142Z,20.44
2023-05-15T04:22:39.899Z,20.41
2023-05-15T04:23:11.492Z,20.45
2023-05-15T04:23:42.988Z,20.45
2023-05-15T04:24:14.682Z,20.43
2023-05-15T04:24:46.250Z,20.45
2023-05-15T04:25:17.816Z,20.46
2023-05-15T04:25:49.343Z,20.45
2023-05-15T04:26:20.899Z,20.45
2023-05-15T04:26:52.451Z,20.46
2023-05-15T04:27:23.923Z,20.46
2023-05-15T04:27:55.390Z,20.46
2023-05-15T04:28:27.669Z,20.46
2023-05-15T04:29:03.863Z,20.47
2023-05-15T04:29:35.981Z,20.46
2023-05-15T04:30:07.790Z,20.48
2023-05-15T04:30:39.393Z,20.48
2023-05-15T04:31:11.069Z,20.47
2023-05-15T04:31:42.818Z,20.50
2023-05-15T04:32:14.414Z,20.51
2023-05-15T04:32:46.028Z,20.47
2023-05-15T04:33:17.587Z,20.48
2023-05-15T04:33:50.030Z,20.48
2023-05-15T04:34:22.937Z,20.48
2023-05-15T04:34:54.442Z,20.47
2023-05-15T04:35:26.216Z,20.50
2023-05-15T04:35:57.953Z,20.48
2023-05-15T04:36:29.471Z,20.48
2023-05-15T04:37:01.008Z,20.51
2023-05-15T04:37:32.568Z,20.52
2023-05-15T04:38:04.038Z,20.54
2023-05-15T04:38:35.544Z,20.51
2023-05-15T04:39:07.034Z,20.49
2023-05-15T04:39:38.564Z,20.49
2023-05-15T04:40:10.182Z,20.48
2023-05-15T04:40:41.694Z,20.48
2023-05-15T04:41:13.256Z,20.51
2023-05-15T04:41:44.711Z,20.51
2023-05-15T04:42:16.293Z,20.51
2023-05-15T04:42:47.794Z,20.53
2023-05-15T04:43:19.403Z,20.52
2023-05-15T04:43:50.932Z,20.51
2023-05-15T04:44:22.516Z,20.52
2023-05-15T04:44:54.096Z,20.52
2023-05-15T04:45:25.905Z,20.51
2023-05-15T04:45:57.715Z,20.52
2023-05-15T04:46:29.470Z,20.53
2023-05-15T04:47:01.055Z,20.53
2023-05-15T04:47:32.671Z,20.53
2023-05-15T04:48:04.468Z,20.54
2023-05-15T04:48:35.971Z,20.53
2023-05-15T04:49:07.560Z,20.55
2023-05-15T04:49:39.453Z,20.55
2023-05-15T04:50:10.897Z,20.54
2023-05-15T04:50:42.455Z,20.53
2023-05-15T04:51:14.050Z,20.54
2023-05-15T04:51:45.765Z,20.54
2023-05-15T04:52:17.467Z,20.56
2023-05-15T04:52:49.130Z,20.56
2023-05-15T04:53:20.914Z,20.55
2023-05-15T04:53:52.476Z,20.55
2023-05-15T04:54:24.088Z,20.55
2023-05-15T04:54:55.729Z,20.55
2023-05-15T04:55:27.564Z,20.54
2023-05-15T04:55:59.216Z,20.56
2023-05-15T04:56:30.849Z,20.53
2023-05-15T04:57:02.337Z,20.53
2023-05-15T04:57:33.831Z,20.52
2023-05-15T04:58:05.347Z,20.51
2023-05-15T04:58:37.061Z,20.52
2023-05-15T04:59:08.622Z,20.52
2023-05-15T04:59:40.115Z,20.55
2023-05-15T05:00:11.900Z,20.56
2023-05-15T05:00:43.512Z,20.56
2023-05-15T05:01:15.024Z,20.58
2023-05-15T05:01:46.761Z,20.59
2023-05-15T05:02:21.127Z,20.57
2023-05-15T05:02:52.784Z,20.55
2023-05-15T05:03:24.362Z,20.57
2023-05-15T05:03:55.998Z,20.58
2023-05-15T05:04:27.545Z,20.56
2023-05-15T05:04:59.069Z,20.57
2023-05-15T05:05:30.560Z,20.57
2023-05-15T05:06:02.118Z,20.57
2023-05-15T05:06:33.601Z,20.57
2023-05-15T05:07:05.020Z,20.57
2023-05-15T05:07:36.517Z,20.60
2023-05-15T05:08:07.979Z,20.59
2023-05-15T05:08:39.504Z,20.61
2023-05-15T05:09:11.113Z,20.62
2023-05-15T05:09:42.839Z,20.63
2023-05-15T05:10:14.328Z,20.66
2023-05-15T05:10:45.882Z,20.64
2023-05-15T05:11:17.357Z,20.62
2023-05-15T05:11:48.868Z,20.61
2023-05-15T05:12:20.415Z,20.62
2023-05-15T05:12:51.967Z,20.63
2023-05-15T05:13:23.485Z,20.63
2023-05-15T05:13:55.063Z,20.65
2023-05-15T05:14:26.686Z,20.66
2023-05-15T05:14:58.235Z,20.64
2023-05-15T05:15:29.747Z,20.61
2023-05-15T05:16:01.290Z,20.62
2023-05-15T05:16:32.968Z,20.64
2023-05-15T05:17:04.658Z,20.63
2023-05-15T05:17:36.176Z,20.65
2023-05-15T05:18:07.797Z,20.62
2023-05-15T05:18:39.445Z,20.62
2023-05-15T05:19:11.198Z,20.62
2023-05-15T05:19:42.756Z,20.63
2023-05-15T05:20:14.384Z,20.65
2023-05-15T05:20:45.901Z,20.64
2023-05-15T05:21:17.613Z,20.66
2023-05-15T05:21:49.184Z,20.65
2023-05-15T05:22:20.779Z,20.65
2023-05-15T05:22:52.358Z,20.66
2023-05-15T05:23:23.893Z,20.66
2023-05-15T05:23:55.408Z,20.65
2023-05-15T05:24:27.071Z,20.66
2023-05-15T05:24:58.631Z,20.65
2023-05-15T05:25:30.196Z,20.65
2023-05-15T05:26:03.536Z,20.64
2023-05-15T05:26:35.898Z,20.64
2023-05-15T05:27:07.395Z,20.63
2023-05-15T05:27:38.916Z,20.60
2023-05-15T05:28:10.385Z,20.63
2023-05-15T05:28:41.948Z,20.65
2023-05-15T05:29:13.501Z,20.66
2023-05-15T05:29:45.023Z,20.66
2023-05-15T05:30:16.614Z,20.67
2023-05-15T05:30:48.281Z,20.69
2023-05-15T05:31:20.162Z,20.69
2023-05-15T05:31:51.828Z,20.66
2023-05-15T05:32:23.357Z,20.69
2023-05-15T05:32:54.960Z,20.67
2023-05-15T05:33:26.510Z,20.67
2023-05-15T05:33:57.996Z,20.67
2023-05-15T05:34:29.453Z,20.67
2023-05-15T05:35:00.999Z,20.69
2023-05-15T05:35:32.582Z,20.73
2023-05-15T05:36:04.187Z,20.71
2023-05-15T05:36:35.712Z,20.68
2023-05-15T05:37:07.277Z,20.70
2023-05-15T05:37:40.322Z,20.67
2023-05-15T05:38:12.786Z,20.65
2023-05-15T05:38:44.529Z,20.66
2023-05-15T05:39:16.224Z,20.69
2023-05-15T05:39:47.705Z,20.70
2023-05-15T05:40:19.172Z,20.70
2023-05-15T05:40:50.665Z,20.67
2023-05-15T05:41:22.168Z,20.69
2023-05-15T05:41:53.802Z,20.69
2023-05-15T05:42:25.290Z,20.69
2023-05-15T05:43:02.528Z,20.69
2023-05-15T05:43:33.984Z,20.68
2023-05-15T05:44:05.567Z,20.66
2023-05-15T05:44:37.073Z,20.69
2023-05-15T05:45:08.775Z,20.69
2023-05-15T05:45:40.231Z,20.67
2023-05-15T05:46:11.842Z,20.66
2023-05-15T05:46:43.426Z,20.67
2023-05-15T05:47:15.077Z,20.69
2023-05-15T05:47:46.624Z,20.70
2023-05-15T05:48:18.160Z,20.69
2023-05-15T05:48:49.691Z,20.67
2023-05-15T05:49:21.187Z,20.67
2023-05-15T05:49:52.818Z,20.65
2023-05-15T05:50:24.500Z,20.67
2023-05-15T05:50:55.999Z,20.71
2023-05-15T05:51:27.497Z,20.70
2023-05-15T05:52:04.732Z,20.70
2023-05-15T05:52:36.273Z,20.73
2023-05-15T05:53:07.843Z,20.72
2023-05-15T05:53:39.645Z,20.72
2023-05-15T05:54:11.216Z,20.71
2023-05-15T05:54:42.742Z,20.72
2023-05-15T05:55:14.260Z,20.72
2023-05-15T05:55:45.812Z,20.74
2023-05-15T05:56:17.252Z,20.71
2023-05-15T05:56:48.809Z,20.70
2023-05-15T05:57:20.285Z,20.70
2023-05-15T05:57:51.746Z,20.70
2023-05-15T05:58:25.923Z,20.71
2023-05-15T05:58:58.039Z,20.71
2023-05-15T05:59:29.531Z,20.73
2023-05-15T06:00:01.129Z,20.70
2023-05-15T06:00:32.671Z,20.68
2023-05-15T06:01:04.245Z,20.71
2023-05-15T06:01:35.801Z,20.73
2023-05-15T06:02:07.728Z,20.72
2023-05-15T06:02:39.660Z,20.74
2023-05-15T06:03:11.261Z,20.75
2023-05-15T06:03:42.894Z,20.75
2023-05-15T06:04:15.636Z,20.78
2023-05-15T06:04:48.397Z,20.76
2023-05-15T06:05:19.889Z,20.75
2023-05-15T06:05:51.429Z,20.72
2023-05-15T06:06:23.039Z,20.68
2023-05-15T06:06:54.600Z,20.65
2023-05-15T06:07:26.161Z,20.67
2023-05-15T06:07:57.741Z,20.69
2023-05-15T06:08:29.400Z,20.70
2023-05-15T06:09:00.898Z,20.73
2023-05-15T06:09:32.356Z,20.74
2023-05-15T06:10:04.052Z,20.71
2023-05-15T06:10:35.612Z,20.71
2023-05-15T06:11:07.164Z,20.72
2023-05-15T06:11:38.601Z,20.73
2023-05-15T06:12:10.316Z,20.73
2023-05-15T06:12:41.828Z,20.71
2023-05-15T06:13:13.339Z,20.71
2023-05-15T06:13:44.863Z,20.71
2023-05-15T06:14:16.430Z,20.72
2023-05-15T06:14:48.068Z,20.71
2023-05-15T06:15:19.657Z,20.71
2023-05-15T06:15:51.216Z,20.74
2023-05-15T06:16:22.774Z,20.71
2023-05-15T06:16:54.368Z,20.74
2023-05-15T06:17:26.010Z,20.74
2023-05-15T06:17:57.606Z,20.74
2023-05-15T06:18:29.151Z,20.72
2023-05-15T06:19:00.762Z,20.73
2023-05-15T06:19:32.298Z,20.72
2023-05-15T06:20:04.012Z,20.72
2023-05-15T06:20:35.586Z,20.74
2023-05-15T06:21:07.144Z,20.71
2023-05-15T06:21:38.657Z,20.71
2023-05-15T06:22:10.218Z,20.71
2023-05-15T06:22:41.749Z,20.72
2023-05-15T06:23:13.343Z,20.74
2023-05-15T06:23:44.909Z,20.76
2023-05-15T06:24:16.457Z,20.79
2023-05-15T06:24:48.035Z,20.78
2023-05-15T06:25:19.683Z,20.75
2023-05-15T06:25:51.255Z,20.74
2023-05-15T06:26:22.831Z,20.75
2023-05-15T06:26:54.313Z,20.73
2023-05-15T06:27:25.983Z,20.71
2023-05-15T06:27:57.514Z,20.72
2023-05-15T06:28:29.113Z,20.71
2023-05-15T06:29:00.647Z,20.72
2023-05-15T06:29:32.248Z,20.75
2023-05-15T06:30:04.036Z,20.76
2023-05-15T06:30:35.514Z,20.73
2023-05-15T06:31:07.272Z,20.73
2023-05-15T06:31:38.950Z,20.71
2023-05-15T06:32:10.618Z,20.71
2023-05-15T06:32:42.380Z,20.74
2023-05-15T06:33:14.102Z,20.74
2023-05-15T06:33:45.941Z,20.71
2023-05-15T06:34:17.469Z,20.72
2023-05-15T06:34:49.096Z,20.71
2023-05-15T06:35:20.620Z,20.75
2023-05-15T06:35:52.165Z,20.77
2023-05-15T06:36:23.861Z,20.77
2023-05-15T06:36:55.312Z,20.77
2023-05-15T06:37:26.877Z,20.78
2023-05-15T06:37:58.606Z,20.75
2023-05-15T06:38:30.469Z,20.75
2023-05-15T06:39:02.099Z,20.79
2023-05-15T06:39:33.841Z,20.79
2023-05-15T06:40:05.753Z,20.79
2023-05-15T06:40:37.338Z,20.80
2023-05-15T06:41:08.872Z,20.79
2023-05-15T06:41:40.509Z,20.78
2023-05-15T06:42:12.119Z,20.76
2023-05-15T06:42:43.762Z,20.78
2023-05-15T06:43:15.367Z,20.78
2023-05-15T06:43:46.880Z,20.79
2023-05-15T06:44:18.436Z,20.78
2023-05-15T06:44:50.159Z,20.77
2023-05-15T06:45:21.762Z,20.78
2023-05-15T06:45:53.396Z,20.80
2023-05-15T06:46:25.069Z,20.81
2023-05-15T06:46:56.796Z,20.79
2023-05-15T06:47:28.522Z,20.80
2023-05-15T06:48:01.904Z,20.79
2023-05-15T06:48:33.684Z,20.78
2023-05-15T06:49:05.277Z,20.80
2023-05-15T06:49:36.899Z,20.79
2023-05-15T06:50:08.725Z,20.78
2023-05-15T06:50:40.313Z,20.80
2023-05-15T06:51:11.852Z,20.80
2023-05-15T06:51:43.493Z,20.80
2023-05-15T06:52:15.096Z,20.80
2023-05-15T06:52:46.590Z,20.83
2023-05-15T06:53:18.077Z,20.82
2023-05-15T06:53:49.571Z,20.80
2023-05-15T06:54:21.222Z,20.80